createdAt,value
2023-06-09T00:02:20.625Z,15.60
2023-06-09T00:04:47.976Z,15.60
2023-06-09T00:07:18.196Z,15.70
2023-06-09T00:09:45.828Z,15.70
2023-06-09T00:12:13.934Z,15.70
2023-06-09T00:14:41.500Z,15.80
2023-06-09T00:17:09.548Z,15.70
2023-06-09T00:19:43.468Z,15.80
2023-06-09T00:22:15.201Z,15.80
2023-06-09T00:24:42.574Z,15.80
2023-06-09T00:27:10.273Z,15.80
2023-06-09T00:29:37.216Z,15.80
2023-06-09T00:32:06.913Z,15.80
2023-06-09T00:34:34.122Z,15.80
2023-06-09T00:37:01.422Z,15.80
2023-06-09T00:39:28.364Z,15.80
2023-06-09T00:41:55.354Z,15.80
2023-06-09T00:44:22.253Z,15.80
2023-06-09T00:46:49.881Z,15.90
2023-06-09T00:49:17.356Z,15.90
2023-06-09T00:51:44.612Z,15.90
2023-06-09T00:54:11.850Z,15.90
2023-06-09T00:56:40.125Z,15.90
2023-06-09T00:59:09.337Z,15.90
2023-06-09T01:01:38.348Z,15.90
2023-06-09T01:04:05.287Z,15.90
2023-06-09T01:06:57.699Z,15.90
2023-06-09T01:09:33.957Z,15.90
2023-06-09T01:12:26.186Z,15.80
2023-06-09T01:15:20.938Z,15.80
2023-06-09T01:18:10.278Z,15.80
2023-06-09T01:20:48.208Z,15.70
2023-06-09T01:23:53.791Z,15.60
2023-06-09T01:26:22.650Z,15.40
2023-06-09T01:28:49.776Z,15.30
2023-06-09T01:31:17.538Z,15.30
2023-06-09T01:33:46.103Z,15.30
2023-06-09T01:36:13.770Z,15.20
2023-06-09T01:38:41.469Z,15.10
2023-06-09T01:41:09.104Z,15.10
2023-06-09T01:43:36.360Z,15.10
2023-06-09T01:46:03.633Z,15.10
2023-06-09T01:48:42.625Z,15.00
2023-06-09T01:51:47.026Z,15.00
2023-06-09T01:54:26.205Z,14.90
2023-06-09T01:56:59.743Z,14.90
2023-06-09T01:59:34.723Z,14.80
2023-06-09T02:02:03.117Z,14.80
2023-06-09T02:04:31.997Z,14.80
2023-06-09T02:06:59.668Z,14.80
2023-06-09T02:09:26.916Z,14.80
2023-06-09T02:11:54.125Z,14.80
2023-06-09T02:14:21.713Z,14.90
2023-06-09T02:16:48.882Z,14.90
2023-06-09T02:19:18.231Z,14.90
2023-06-09T02:21:45.310Z,15.00
2023-06-09T02:24:12.344Z,15.00
2023-06-09T02:26:39.344Z,15.10
2023-06-09T02:29:06.647Z,15.00
2023-06-09T02:31:33.643Z,15.00
2023-06-09T02:34:00.742Z,15.10
2023-06-09T02:36:28.264Z,15.10
2023-06-09T02:38:55.567Z,15.10
2023-06-09T02:41:26.826Z,15.10
2023-06-09T02:43:53.876Z,15.20
2023-06-09T02:46:23.797Z,15.20
2023-06-09T02:48:50.812Z,15.20
2023-06-09T02:51:17.755Z,15.20
2023-06-09T02:53:44.736Z,15.10
2023-06-09T02:56:11.858Z,15.20
2023-06-09T02:58:38.909Z,15.20
2023-06-09T03:01:05.918Z,15.20
2023-06-09T03:03:32.990Z,15.30
2023-06-09T03:06:00.559Z,15.30
2023-06-09T03:08:27.525Z,15.30
2023-06-09T03:10:54.829Z,15.30
2023-06-09T03:13:23.055Z,15.30
2023-06-09T03:15:51.337Z,15.30
2023-06-09T03:18:18.830Z,15.30
2023-06-09T03:20:46.571Z,15.30
2023-06-09T03:23:14.941Z,15.30
2023-06-09T03:25:41.923Z,15.30
2023-06-09T03:28:09.017Z,15.30
2023-06-09T03:30:35.958Z,15.30
2023-06-09T03:33:03.116Z,15.30
2023-06-09T03:35:30.202Z,15.30
2023-06-09T03:37:57.157Z,15.30
2023-06-09T03:40:24.317Z,15.30
2023-06-09T03:42:51.353Z,15.40
2023-06-09T03:45:18.332Z,15.30
2023-06-09T03:47:45.906Z,15.30
2023-06-09T03:50:13.170Z,15.40
2023-06-09T03:52:41.316Z,15.40
2023-06-09T03:55:08.849Z,15.30
2023-06-09T03:57:35.967Z,15.30
2023-06-09T04:00:04.402Z,15.30
2023-06-09T04:02:31.785Z,15.30
2023-06-09T04:04:58.854Z,15.30
2023-06-09T04:07:26.127Z,15.30
2023-06-09T04:09:53.041Z,15.40
2023-06-09T04:12:23.050Z,15.40
2023-06-09T04:14:49.997Z,15.50
2023-06-09T04:17:17.164Z,15.50
2023-06-09T04:19:44.135Z,15.50
2023-06-09T04:22:11.667Z,15.40
2023-06-09T04:24:38.615Z,15.40
2023-06-09T04:27:05.930Z,15.40
2023-06-09T04:29:35.945Z,15.40
2023-06-09T04:32:03.407Z,15.40
2023-06-09T04:34:39.250Z,15.50
2023-06-09T04:37:09.998Z,15.60
2023-06-09T04:39:36.994Z,15.60
2023-06-09T04:42:08.766Z,15.70
2023-06-09T04:44:37.248Z,15.80
2023-06-09T04:47:04.570Z,15.80
2023-06-09T04:49:32.426Z,15.90
2023-06-09T04:52:00.453Z,16.00
2023-06-09T04:54:29.840Z,16.00
2023-06-09T04:57:01.313Z,16.10
2023-06-09T04:59:31.532Z,16.20
2023-06-09T05:01:59.093Z,16.30
2023-06-09T05:04:26.152Z,16.40
2023-06-09T05:06:53.315Z,16.50
2023-06-09T05:09:20.746Z,16.50
2023-06-09T05:11:47.665Z,16.60
2023-06-09T05:14:14.591Z,16.70
2023-06-09T05:16:41.631Z,16.70
2023-06-09T05:19:09.041Z,16.70
2023-06-09T05:21:37.265Z,16.90
2023-06-09T05:24:05.073Z,17.00
2023-06-09T05:26:32.117Z,17.00
2023-06-09T05:29:00.142Z,17.10
2023-06-09T05:31:27.588Z,17.10
2023-06-09T05:33:54.917Z,17.10
2023-06-09T05:36:21.892Z,17.10
2023-06-09T05:38:48.968Z,17.10
2023-06-09T05:41:16.614Z,17.20
2023-06-09T05:43:43.629Z,17.30
2023-06-09T05:46:11.068Z,17.40
2023-06-09T05:48:38.186Z,17.70
2023-06-09T05:51:05.216Z,17.90
2023-06-09T05:53:35.081Z,18.20
2023-06-09T05:56:03.661Z,18.40
2023-06-09T05:58:35.068Z,18.70
2023-06-09T06:01:04.790Z,18.90
2023-06-09T06:03:34.399Z,19.20
2023-06-09T06:06:02.103Z,19.40
2023-06-09T06:08:29.224Z,19.60
2023-06-09T06:10:56.441Z,19.70
2023-06-09T06:13:23.587Z,19.80
2023-06-09T06:15:50.825Z,19.80
2023-06-09T06:18:17.965Z,19.80
2023-06-09T06:20:45.142Z,19.60
2023-06-09T06:23:12.576Z,19.60
2023-06-09T06:25:42.808Z,19.50
2023-06-09T06:28:11.624Z,19.40
2023-06-09T06:30:38.910Z,19.40
2023-06-09T06:33:06.036Z,19.50
2023-06-09T06:35:33.534Z,19.70
2023-06-09T06:38:01.069Z,19.90
2023-06-09T06:40:28.863Z,20.30
2023-06-09T06:42:56.159Z,20.70
2023-06-09T06:45:23.902Z,21.00
2023-06-09T06:47:51.432Z,21.30
2023-06-09T06:50:18.796Z,21.40
2023-06-09T06:52:47.411Z,21.50
2023-06-09T06:55:14.536Z,21.60
2023-06-09T06:57:42.451Z,21.70
2023-06-09T07:00:15.750Z,21.60
2023-06-09T07:02:47.713Z,21.50
2023-06-09T07:05:16.045Z,21.50
2023-06-09T07:07:45.089Z,21.50
2023-06-09T07:10:12.958Z,21.60
2023-06-09T07:12:40.289Z,21.60
2023-06-09T07:15:08.059Z,21.50
2023-06-09T07:17:35.160Z,21.50
2023-06-09T07:20:02.176Z,21.60
2023-06-09T07:22:29.629Z,21.90
2023-06-09T07:24:57.623Z,22.20
2023-06-09T07:27:24.854Z,22.40
2023-06-09T07:29:51.993Z,22.50
2023-06-09T07:32:19.299Z,22.70
2023-06-09T07:34:46.839Z,22.80
2023-06-09T07:37:14.689Z,22.70
2023-06-09T07:39:41.774Z,22.80
2023-06-09T07:42:08.943Z,22.80
2023-06-09T07:44:36.581Z,22.70
2023-06-09T07:47:04.189Z,22.70
2023-06-09T07:49:31.258Z,22.80
2023-06-09T07:52:04.086Z,22.90
2023-06-09T07:54:38.375Z,22.80
2023-06-09T07:57:05.897Z,23.10
2023-06-09T07:59:33.223Z,23.20
2023-06-09T08:02:00.601Z,23.40
2023-06-09T08:04:29.594Z,23.50
2023-06-09T08:07:00.256Z,23.70
2023-06-09T08:09:27.502Z,23.80
2023-06-09T08:11:55.109Z,23.90
2023-06-09T08:14:23.516Z,24.20
2023-06-09T08:16:51.865Z,24.70
2023-06-09T08:19:19.068Z,25.10
2023-06-09T08:21:46.030Z,25.50
2023-06-09T08:24:13.638Z,25.70
2023-06-09T08:26:42.441Z,25.70
2023-06-09T08:29:09.636Z,26.10
2023-06-09T08:31:38.680Z,26.40
2023-06-09T08:34:06.991Z,26.80
2023-06-09T08:36:34.133Z,27.00
2023-06-09T08:39:01.462Z,27.40
2023-06-09T08:41:33.799Z,27.90
2023-06-09T08:44:02.935Z,28.20
2023-06-09T08:46:36.965Z,28.60
2023-06-09T08:49:04.571Z,28.80
2023-06-09T08:51:32.891Z,28.90
2023-06-09T08:54:01.961Z,28.90
2023-06-09T08:56:29.919Z,29.10
2023-06-09T08:58:57.479Z,29.80
2023-06-09T09:01:24.944Z,30.10
2023-06-09T09:03:52.488Z,30.20
2023-06-09T09:06:21.328Z,30.30
2023-06-09T09:08:49.550Z,30.20
2023-06-09T09:11:17.073Z,30.30
2023-06-09T09:13:48.010Z,30.30
2023-06-09T09:16:15.556Z,30.50
2023-06-09T09:18:50.049Z,30.50
2023-06-09T09:21:24.546Z,30.30
2023-06-09T09:24:02.584Z,30.50
2023-06-09T09:26:31.504Z,30.60
2023-06-09T09:29:07.216Z,30.30
2023-06-09T09:31:37.146Z,30.30
2023-06-09T09:34:04.625Z,30.50
2023-06-09T09:36:32.167Z,30.40
2023-06-09T09:39:07.048Z,30.50
2023-06-09T09:41:34.499Z,30.90
2023-06-09T09:44:02.996Z,31.30
2023-06-09T09:46:38.496Z,31.60
2023-06-09T09:49:08.362Z,31.50
2023-06-09T09:51:38.555Z,31.50
2023-06-09T09:54:06.992Z,31.50
2023-06-09T09:56:34.840Z,31.70
2023-06-09T09:59:03.829Z,31.70
2023-06-09T10:01:32.632Z,31.70
2023-06-09T10:06:56.832Z,31.70
2023-06-09T10:09:25.934Z,31.80
2023-06-09T10:11:54.875Z,31.60
2023-06-09T10:14:22.993Z,31.50
2023-06-09T10:16:53.173Z,31.30
2023-06-09T10:19:24.636Z,31.10
2023-06-09T10:21:54.053Z,30.60
2023-06-09T10:24:25.666Z,30.40
2023-06-09T10:26:54.030Z,30.40
2023-06-09T10:29:21.636Z,30.60
2023-06-09T10:31:50.348Z,30.20
2023-06-09T10:34:18.801Z,30.40
2023-06-09T10:36:47.025Z,30.40
2023-06-09T10:39:23.621Z,30.40
2023-06-09T10:42:13.449Z,30.50
2023-06-09T10:44:52.430Z,30.50
2023-06-09T10:47:52.477Z,30.30
2023-06-09T10:50:27.014Z,30.10
2023-06-09T10:52:56.802Z,30.40
2023-06-09T10:55:32.427Z,30.50
2023-06-09T10:57:59.643Z,30.60
2023-06-09T11:00:46.895Z,30.70
2023-06-09T11:03:32.658Z,30.70
2023-06-09T11:06:01.722Z,30.30
2023-06-09T11:09:02.987Z,30.20
2023-06-09T11:11:51.639Z,30.10
2023-06-09T11:14:47.535Z,30.40
2023-06-09T11:17:32.400Z,30.20
2023-06-09T11:20:13.051Z,30.40
2023-06-09T11:22:45.196Z,30.50
2023-06-09T11:25:25.984Z,30.50
2023-06-09T11:27:56.397Z,30.20
2023-06-09T11:30:28.325Z,29.90
2023-06-09T11:33:03.383Z,30.10
2023-06-09T11:35:31.080Z,30.00
2023-06-09T11:38:04.119Z,30.00
2023-06-09T11:40:32.363Z,30.10
2023-06-09T11:43:01.271Z,30.20
2023-06-09T11:45:31.076Z,30.20
2023-06-09T11:48:02.177Z,30.10
2023-06-09T11:50:43.806Z,30.00
2023-06-09T11:53:11.695Z,29.70
2023-06-09T11:55:39.132Z,29.80
2023-06-09T11:58:09.902Z,30.00
2023-06-09T12:00:45.229Z,30.10
2023-06-09T12:03:13.605Z,30.20
2023-06-09T12:05:42.628Z,30.40
2023-06-09T12:08:13.627Z,30.20
2023-06-09T12:10:41.867Z,30.20
2023-06-09T12:13:09.327Z,30.30
2023-06-09T12:15:36.387Z,30.20
2023-06-09T12:18:05.078Z,30.30
2023-06-09T12:20:37.109Z,30.10
2023-06-09T12:23:13.893Z,30.00
2023-06-09T12:25:48.307Z,30.10
2023-06-09T12:28:19.458Z,29.70
2023-06-09T12:30:51.407Z,29.50
2023-06-09T12:33:23.214Z,29.70
2023-06-09T12:35:52.527Z,29.80
2023-06-09T12:38:19.805Z,29.80
2023-06-09T12:40:59.999Z,29.80
2023-06-09T12:43:28.156Z,29.70
2023-06-09T12:45:59.544Z,29.90
2023-06-09T12:48:26.771Z,29.90
2023-06-09T12:50:57.838Z,30.20
2023-06-09T12:53:24.969Z,30.40
2023-06-09T12:55:51.877Z,30.30
2023-06-09T12:58:18.890Z,30.20
2023-06-09T13:00:46.115Z,30.20
2023-06-09T13:03:13.481Z,30.20
2023-06-09T13:05:40.896Z,30.30
2023-06-09T13:08:08.059Z,30.20
2023-06-09T13:10:35.175Z,30.10
2023-06-09T13:13:02.956Z,29.80
2023-06-09T13:15:30.072Z,29.60
2023-06-09T13:17:57.322Z,29.50
2023-06-09T13:20:24.701Z,29.40
2023-06-09T13:22:52.834Z,29.40
2023-06-09T13:25:20.348Z,29.40
2023-06-09T13:27:47.748Z,29.40
2023-06-09T13:30:15.033Z,29.20
2023-06-09T13:32:42.386Z,29.00
2023-06-09T13:35:10.471Z,29.00
2023-06-09T13:37:37.771Z,29.00
2023-06-09T13:40:05.885Z,29.00
2023-06-09T13:42:33.464Z,28.90
2023-06-09T13:45:00.785Z,28.90
2023-06-09T13:47:28.362Z,29.10
2023-06-09T13:49:56.585Z,29.10
2023-06-09T13:52:24.964Z,29.30
2023-06-09T13:54:52.419Z,29.30
2023-06-09T13:57:19.720Z,29.30
2023-06-09T13:59:47.038Z,29.20
2023-06-09T14:02:14.527Z,28.90
2023-06-09T14:04:41.884Z,28.70
2023-06-09T14:07:09.292Z,28.50
2023-06-09T14:09:36.876Z,28.40
2023-06-09T14:12:07.249Z,28.30
2023-06-09T14:14:37.697Z,28.30
2023-06-09T14:17:05.429Z,28.40
2023-06-09T14:19:32.768Z,28.40
2023-06-09T14:22:00.218Z,28.40
2023-06-09T14:24:27.548Z,28.30
2023-06-09T14:26:55.216Z,28.30
2023-06-09T14:29:22.699Z,28.30
2023-06-09T14:31:50.111Z,28.20
2023-06-09T14:34:17.514Z,28.10
2023-06-09T14:36:44.605Z,28.10
2023-06-09T14:39:12.564Z,28.10
2023-06-09T14:41:40.222Z,28.10
2023-06-09T14:44:07.769Z,28.00
2023-06-09T14:46:34.989Z,28.10
2023-06-09T14:49:02.462Z,28.10
2023-06-09T14:51:30.037Z,28.00
2023-06-09T14:53:57.291Z,27.90
2023-06-09T14:56:24.692Z,27.80
2023-06-09T14:58:52.009Z,27.90
2023-06-09T15:01:19.401Z,28.00
2023-06-09T15:03:46.492Z,28.00
2023-06-09T15:06:13.871Z,27.90
2023-06-09T15:08:41.299Z,28.00
2023-06-09T15:11:08.690Z,27.90
2023-06-09T15:13:35.643Z,28.00
2023-06-09T15:16:02.852Z,28.00
2023-06-09T15:18:33.552Z,27.90
2023-06-09T15:21:00.929Z,27.80
2023-06-09T15:23:28.202Z,27.90
2023-06-09T15:25:55.591Z,27.80
2023-06-09T15:28:23.067Z,27.80
2023-06-09T15:30:50.798Z,27.80
2023-06-09T15:33:22.799Z,27.70
2023-06-09T15:35:52.700Z,27.80
2023-06-09T15:38:22.189Z,27.80
2023-06-09T15:40:51.164Z,27.80
2023-06-09T15:43:20.514Z,27.90
2023-06-09T15:45:57.011Z,27.80
2023-06-09T15:48:24.596Z,27.80
2023-06-09T15:50:51.970Z,27.80
2023-06-09T15:53:21.511Z,27.70
2023-06-09T15:55:50.952Z,27.70
2023-06-09T15:58:18.197Z,27.70
2023-06-09T16:00:46.156Z,27.60
2023-06-09T16:03:13.375Z,27.60
2023-06-09T16:05:42.377Z,27.50
2023-06-09T16:08:12.099Z,27.60
2023-06-09T16:10:40.472Z,27.50
2023-06-09T16:13:08.536Z,27.50
2023-06-09T16:15:37.798Z,27.40
2023-06-09T16:18:07.431Z,27.40
2023-06-09T16:20:35.401Z,27.30
2023-06-09T16:23:03.891Z,27.30
2023-06-09T16:25:31.680Z,27.30
2023-06-09T16:27:59.913Z,27.20
2023-06-09T16:30:29.624Z,27.10
2023-06-09T16:32:56.751Z,27.10
2023-06-09T16:35:26.719Z,27.00
2023-06-09T16:37:54.868Z,27.10
2023-06-09T16:40:26.179Z,27.10
2023-06-09T16:42:54.306Z,27.00
2023-06-09T16:45:21.506Z,27.00
2023-06-09T16:47:48.764Z,26.90
2023-06-09T16:50:15.992Z,26.90
2023-06-09T16:52:48.008Z,26.90
2023-06-09T16:55:25.828Z,26.90
2023-06-09T16:57:55.901Z,26.80
2023-06-09T17:00:23.548Z,26.90
2023-06-09T17:02:53.551Z,26.90
2023-06-09T17:05:22.474Z,26.90
2023-06-09T17:07:49.456Z,26.80
2023-06-09T17:10:16.665Z,26.80
2023-06-09T17:12:43.746Z,26.80
2023-06-09T17:15:14.945Z,26.70
2023-06-09T17:17:41.988Z,26.70
2023-06-09T17:20:09.749Z,26.60
2023-06-09T17:22:37.252Z,26.60
2023-06-09T17:25:04.475Z,26.60
2023-06-09T17:27:31.361Z,26.50
2023-06-09T17:30:03.222Z,26.40
2023-06-09T17:32:35.769Z,26.40
2023-06-09T17:35:03.183Z,26.30
2023-06-09T17:37:30.786Z,26.30
2023-06-09T17:39:57.760Z,26.20
2023-06-09T17:42:24.896Z,26.20
2023-06-09T17:44:52.074Z,26.10
2023-06-09T17:47:19.140Z,26.10
2023-06-09T17:49:46.093Z,26.20
2023-06-09T17:52:15.536Z,26.00
2023-06-09T17:54:45.631Z,25.90
2023-06-09T17:57:13.097Z,25.80
2023-06-09T17:59:40.144Z,25.80
2023-06-09T18:02:08.420Z,25.70
2023-06-09T18:04:38.854Z,25.60
2023-06-09T18:07:06.459Z,25.50
2023-06-09T18:09:34.296Z,25.50
2023-06-09T18:12:01.878Z,25.50
2023-06-09T18:14:29.573Z,25.50
2023-06-09T18:16:56.816Z,25.50
2023-06-09T18:19:23.963Z,25.40
2023-06-09T18:21:51.200Z,25.40
2023-06-09T18:24:18.839Z,25.30
2023-06-09T18:26:46.680Z,25.20
2023-06-09T18:29:14.113Z,25.10
2023-06-09T18:31:41.401Z,25.10
2023-06-09T18:34:12.376Z,25.10
2023-06-09T18:36:40.257Z,25.00
2023-06-09T18:39:07.288Z,24.90
2023-06-09T18:41:34.804Z,24.90
2023-06-09T18:44:12.709Z,24.80
2023-06-09T18:46:40.477Z,24.70
2023-06-09T18:49:07.905Z,24.70
2023-06-09T18:51:36.557Z,24.60
2023-06-09T18:54:05.006Z,24.60
2023-06-09T18:56:32.217Z,24.50
2023-06-09T18:58:59.845Z,24.30
2023-06-09T19:01:28.527Z,24.20
2023-06-09T19:03:56.118Z,24.20
2023-06-09T19:06:23.635Z,24.00
2023-06-09T19:08:50.976Z,24.00
2023-06-09T19:11:18.368Z,23.80
2023-06-09T19:13:45.644Z,23.80
2023-06-09T19:16:12.796Z,23.70
2023-06-09T19:18:40.197Z,23.70
2023-06-09T19:21:07.680Z,23.60
2023-06-09T19:23:35.144Z,23.60
2023-06-09T19:26:02.857Z,23.50
2023-06-09T19:28:30.135Z,23.40
2023-06-09T19:30:57.513Z,23.40
2023-06-09T19:33:27.803Z,23.20
2023-06-09T19:35:55.345Z,23.10
2023-06-09T19:38:22.607Z,23.00
2023-06-09T19:40:52.865Z,22.90
2023-06-09T19:43:20.765Z,22.80
2023-06-09T19:45:48.731Z,22.80
2023-06-09T19:48:16.607Z,22.70
2023-06-09T19:50:44.925Z,22.60
2023-06-09T19:53:12.595Z,22.50
2023-06-09T19:55:39.937Z,22.40
2023-06-09T19:58:07.122Z,22.30
2023-06-09T20:00:35.687Z,22.20
2023-06-09T20:03:03.430Z,22.10
2023-06-09T20:05:31.106Z,22.00
2023-06-09T20:07:58.490Z,21.90
2023-06-09T20:10:27.947Z,21.90
2023-06-09T20:12:56.320Z,21.80
2023-06-09T20:15:23.822Z,21.70
2023-06-09T20:17:51.186Z,21.70
2023-06-09T20:20:18.642Z,21.70
2023-06-09T20:22:47.373Z,21.70
2023-06-09T20:25:14.894Z,21.70
2023-06-09T20:27:42.156Z,21.70
2023-06-09T20:30:09.962Z,21.60
2023-06-09T20:32:37.324Z,21.50
2023-06-09T20:35:04.744Z,21.50
2023-06-09T20:37:32.234Z,21.40
2023-06-09T20:39:59.594Z,21.30
2023-06-09T20:42:27.116Z,21.30
2023-06-09T20:44:55.863Z,21.20
2023-06-09T20:47:23.297Z,21.20
2023-06-09T20:49:50.544Z,21.10
2023-06-09T20:52:17.533Z,21.00
2023-06-09T20:54:44.818Z,20.90
2023-06-09T20:57:12.134Z,20.90
2023-06-09T20:59:39.899Z,20.80
2023-06-09T21:02:08.986Z,20.70
2023-06-09T21:04:40.181Z,20.60
2023-06-09T21:07:10.900Z,20.50
2023-06-09T21:09:38.822Z,20.40
2023-06-09T21:12:09.660Z,20.40
2023-06-09T21:14:37.463Z,20.30
2023-06-09T21:17:06.116Z,20.30
2023-06-09T21:19:36.784Z,20.30
2023-06-09T21:22:04.488Z,20.20
2023-06-09T21:24:32.894Z,20.20
2023-06-09T21:27:00.967Z,20.20
2023-06-09T21:29:30.064Z,20.10
2023-06-09T21:31:58.243Z,20.00
2023-06-09T21:34:25.955Z,20.00
2023-06-09T21:36:53.618Z,20.00
2023-06-09T21:39:21.188Z,19.90
2023-06-09T21:41:48.639Z,19.90
2023-06-09T21:44:16.499Z,19.90
2023-06-09T21:46:44.259Z,19.90
2023-06-09T21:49:11.859Z,19.90
2023-06-09T21:51:39.615Z,19.90
2023-06-09T21:54:07.467Z,19.80
2023-06-09T21:56:34.953Z,19.70
2023-06-09T21:59:02.371Z,19.70
2023-06-09T22:01:30.015Z,19.60
2023-06-09T22:03:57.716Z,19.60
2023-06-09T22:06:25.297Z,19.50
2023-06-09T22:08:52.684Z,19.50
2023-06-09T22:11:20.239Z,19.40
2023-06-09T22:13:48.125Z,19.40
2023-06-09T22:16:15.615Z,19.30
2023-06-09T22:18:43.057Z,19.30
2023-06-09T22:21:10.620Z,19.20
2023-06-09T22:23:38.156Z,19.20
2023-06-09T22:26:05.712Z,19.10
2023-06-09T22:28:33.142Z,19.10
2023-06-09T22:31:00.959Z,19.00
2023-06-09T22:33:30.000Z,19.00
2023-06-09T22:35:57.281Z,19.00
2023-06-09T22:38:24.433Z,18.90
2023-06-09T22:40:51.769Z,18.80
2023-06-09T22:43:18.864Z,18.80
2023-06-09T22:45:48.531Z,18.70
2023-06-09T22:48:15.602Z,18.60
2023-06-09T22:50:42.643Z,18.60
2023-06-09T22:53:09.641Z,18.50
2023-06-09T22:55:37.107Z,18.50
2023-06-09T22:58:04.466Z,18.40
2023-06-09T23:00:31.870Z,18.40
2023-06-09T23:02:59.078Z,18.30
2023-06-09T23:05:31.781Z,18.30
2023-06-09T23:07:59.033Z,18.20
2023-06-09T23:10:26.375Z,18.20
2023-06-09T23:12:53.455Z,18.20
2023-06-09T23:15:23.137Z,18.10
2023-06-09T23:17:51.130Z,18.10
2023-06-09T23:20:21.842Z,18.00
2023-06-09T23:22:51.906Z,18.00
2023-06-09T23:25:19.674Z,17.90
2023-06-09T23:27:47.209Z,17.90
2023-06-09T23:30:15.829Z,17.80
2023-06-09T23:32:44.389Z,17.70
2023-06-09T23:35:12.640Z,17.70
2023-06-09T23:37:41.944Z,17.60
2023-06-09T23:40:11.086Z,17.60
2023-06-09T23:42:39.491Z,17.60
2023-06-09T23:45:07.970Z,17.50
2023-06-09T23:47:36.908Z,17.40
2023-06-09T23:50:04.608Z,17.40
2023-06-09T23:52:33.916Z,17.30
2023-06-09T23:55:04.609Z,17.30
2023-06-09T23:57:31.904Z,17.20
2023-06-09T23:59:58.969Z,17.20
